createdAt,value
2024-02-02T00:01:55.501Z,9.41
2024-02-02T00:04:23.376Z,9.42
2024-02-02T00:06:51.388Z,9.45
2024-02-02T00:09:20.467Z,9.43
2024-02-02T00:11:48.799Z,9.42
2024-02-02T00:14:16.700Z,9.42
2024-02-02T00:16:48.299Z,9.43
2024-02-02T00:19:16.269Z,9.42
2024-02-02T00:21:44.217Z,9.40
2024-02-02T00:24:12.950Z,9.41
2024-02-02T00:26:40.872Z,9.41
2024-02-02T00:29:08.745Z,9.39
2024-02-02T00:31:37.293Z,9.39
2024-02-02T00:34:06.807Z,9.40
2024-02-02T00:36:34.674Z,9.41
2024-02-02T00:39:03.377Z,9.39
2024-02-02T00:41:31.277Z,9.37
2024-02-02T00:43:59.114Z,9.35
2024-02-02T00:46:30.154Z,9.33
2024-02-02T00:48:58.311Z,9.30
2024-02-02T00:51:27.768Z,9.31
2024-02-02T00:53:56.222Z,9.31
2024-02-02T00:56:25.450Z,9.31
2024-02-02T00:58:53.597Z,9.27
2024-02-02T01:01:22.222Z,9.27
2024-02-02T01:03:50.215Z,9.28
2024-02-02T01:06:18.157Z,9.29
2024-02-02T01:08:47.653Z,9.28
2024-02-02T01:11:15.660Z,9.33
2024-02-02T01:13:43.533Z,9.36
2024-02-02T01:16:12.047Z,9.34
2024-02-02T01:18:40.131Z,9.37
2024-02-02T01:21:08.106Z,9.33
2024-02-02T01:23:36.984Z,9.33
2024-02-02T01:26:06.425Z,9.32
2024-02-02T01:28:34.262Z,9.32
2024-02-02T01:31:02.843Z,9.31
2024-02-02T01:33:31.243Z,9.32
2024-02-02T01:35:59.781Z,9.30
2024-02-02T01:38:28.602Z,9.30
2024-02-02T01:40:56.498Z,9.29
2024-02-02T01:43:27.319Z,9.29
2024-02-02T01:45:55.931Z,9.31
2024-02-02T01:48:25.473Z,9.30
2024-02-02T01:50:53.378Z,9.36
2024-02-02T01:53:21.956Z,9.36
2024-02-02T01:55:49.862Z,9.30
2024-02-02T01:58:17.748Z,9.28
2024-02-02T02:00:47.623Z,9.28
2024-02-02T02:03:15.821Z,9.30
2024-02-02T02:05:44.150Z,9.30
2024-02-02T02:08:12.291Z,9.27
2024-02-02T02:10:40.211Z,9.24
2024-02-02T02:13:08.406Z,9.24
2024-02-02T02:15:36.411Z,9.26
2024-02-02T02:18:06.241Z,9.27
2024-02-02T02:20:35.487Z,9.22
2024-02-02T02:23:05.265Z,9.23
2024-02-02T02:25:33.246Z,9.23
2024-02-02T02:28:01.398Z,9.23
2024-02-02T02:30:29.550Z,9.24
2024-02-02T02:32:57.542Z,9.25
2024-02-02T02:35:26.088Z,9.25
2024-02-02T02:37:54.203Z,9.23
2024-02-02T02:40:23.473Z,9.23
2024-02-02T02:42:52.415Z,9.21
2024-02-02T02:45:20.376Z,9.19
2024-02-02T02:47:48.553Z,9.19
2024-02-02T02:50:16.672Z,9.18
2024-02-02T02:52:44.756Z,9.17
2024-02-02T02:55:12.617Z,9.13
2024-02-02T02:57:42.042Z,9.13
2024-02-02T03:00:11.593Z,9.08
2024-02-02T03:02:38.494Z,9.08
2024-02-02T03:05:07.545Z,9.11
2024-02-02T03:07:35.416Z,9.11
2024-02-02T03:10:03.282Z,9.07
2024-02-02T03:12:31.682Z,9.08
2024-02-02T03:15:01.278Z,9.09
2024-02-02T03:17:29.247Z,9.11
2024-02-02T03:19:57.143Z,9.11
2024-02-02T03:22:25.293Z,9.10
2024-02-02T03:24:53.427Z,9.09
2024-02-02T03:27:22.653Z,9.07
2024-02-02T03:29:50.605Z,9.06
2024-02-02T03:32:20.195Z,9.10
2024-02-02T03:34:48.184Z,9.08
2024-02-02T03:37:16.652Z,9.08
2024-02-02T03:39:46.895Z,9.09
2024-02-02T03:42:15.088Z,9.06
2024-02-02T03:44:43.247Z,9.07
2024-02-02T03:47:11.106Z,9.12
2024-02-02T03:49:40.597Z,9.10
2024-02-02T03:52:08.977Z,9.06
2024-02-02T03:54:37.257Z,9.06
2024-02-02T03:57:05.540Z,9.04
2024-02-02T03:59:33.831Z,9.05
2024-02-02T04:02:01.954Z,9.05
2024-02-02T04:04:30.554Z,9.06
2024-02-02T04:06:59.842Z,9.09
2024-02-02T04:09:28.372Z,9.07
2024-02-02T04:11:56.386Z,9.09
2024-02-02T04:14:24.757Z,9.10
2024-02-02T04:16:52.633Z,9.12
2024-02-02T04:19:22.523Z,9.12
2024-02-02T04:21:51.489Z,9.12
2024-02-02T04:24:20.765Z,9.11
2024-02-02T04:26:48.725Z,9.11
2024-02-02T04:29:17.035Z,9.13
2024-02-02T04:31:45.411Z,9.13
2024-02-02T04:34:13.482Z,9.13
2024-02-02T04:36:42.584Z,9.14
2024-02-02T04:39:11.149Z,9.12
2024-02-02T04:41:40.400Z,9.15
2024-02-02T04:44:08.715Z,9.15
2024-02-02T04:46:36.612Z,9.15
2024-02-02T04:49:04.709Z,9.15
2024-02-02T04:51:33.141Z,9.15
2024-02-02T04:54:01.458Z,9.12
2024-02-02T04:56:29.600Z,9.12
2024-02-02T04:58:59.150Z,9.10
2024-02-02T05:01:27.419Z,9.15
2024-02-02T05:03:55.334Z,9.13
2024-02-02T05:06:23.927Z,9.11
2024-02-02T05:08:52.370Z,9.10
2024-02-02T05:11:20.270Z,9.10
2024-02-02T05:13:48.507Z,9.10
2024-02-02T05:16:18.192Z,9.09
2024-02-02T05:18:46.031Z,9.06
2024-02-02T05:21:14.053Z,9.10
2024-02-02T05:23:48.690Z,9.09
2024-02-02T05:26:18.452Z,9.09
2024-02-02T05:28:46.965Z,9.08
2024-02-02T05:31:14.873Z,9.10
2024-02-02T05:33:47.336Z,9.11
2024-02-02T05:36:15.678Z,9.12
2024-02-02T05:38:43.977Z,9.13
2024-02-02T05:41:12.247Z,9.10
2024-02-02T05:43:40.132Z,9.13
2024-02-02T05:46:08.351Z,9.11
2024-02-02T05:48:36.485Z,9.10
2024-02-02T05:51:06.307Z,9.10
2024-02-02T05:53:34.518Z,9.07
2024-02-02T05:56:03.082Z,9.07
2024-02-02T05:58:30.933Z,9.05
2024-02-02T06:00:59.197Z,9.03
2024-02-02T06:03:27.666Z,9.01
2024-02-02T06:05:55.642Z,9.00
2024-02-02T06:08:25.351Z,8.96
2024-02-02T06:10:53.447Z,8.97
2024-02-02T06:13:21.357Z,8.96
2024-02-02T06:15:49.560Z,8.95
2024-02-02T06:18:18.310Z,8.92
2024-02-02T06:20:46.330Z,8.90
2024-02-02T06:23:14.646Z,8.89
2024-02-02T06:25:43.906Z,8.90
2024-02-02T06:28:11.810Z,8.84
2024-02-02T06:30:40.351Z,8.81
2024-02-02T06:33:09.042Z,8.78
2024-02-02T06:35:36.962Z,8.79
2024-02-02T06:38:05.215Z,8.80
2024-02-02T06:40:33.086Z,8.78
2024-02-02T06:43:02.334Z,8.75
2024-02-02T06:45:30.626Z,8.75
2024-02-02T06:47:58.626Z,8.75
2024-02-02T06:50:31.639Z,8.75
2024-02-02T06:52:59.920Z,8.73
2024-02-02T06:55:27.849Z,8.73
2024-02-02T06:57:55.797Z,8.73
2024-02-02T07:00:25.498Z,8.70
2024-02-02T07:02:53.509Z,8.71
2024-02-02T07:05:23.194Z,8.72
2024-02-02T07:07:51.892Z,8.68
2024-02-02T07:10:19.967Z,8.67
2024-02-02T07:13:04.526Z,8.68
2024-02-02T07:15:41.099Z,8.67
2024-02-02T07:18:29.236Z,8.66
2024-02-02T07:21:04.587Z,8.66
2024-02-02T07:23:36.721Z,8.66
2024-02-02T07:26:19.679Z,8.67
2024-02-02T07:28:47.746Z,8.68
2024-02-02T07:31:35.369Z,8.66
2024-02-02T07:34:08.357Z,8.67
2024-02-02T07:36:37.039Z,8.67
2024-02-02T07:39:05.275Z,8.68
2024-02-02T07:41:33.483Z,8.63
2024-02-02T07:44:02.965Z,8.62
2024-02-02T07:46:32.388Z,8.68
2024-02-02T07:49:00.754Z,8.67
2024-02-02T07:51:28.899Z,8.66
2024-02-02T07:53:56.922Z,8.66
2024-02-02T07:56:26.274Z,8.68
2024-02-02T07:58:56.250Z,8.69
2024-02-02T08:01:24.161Z,8.69
2024-02-02T08:03:53.670Z,8.70
2024-02-02T08:06:22.141Z,8.72
2024-02-02T08:08:50.061Z,8.76
2024-02-02T08:11:17.968Z,8.78
2024-02-02T08:13:45.870Z,8.78
2024-02-02T08:16:13.734Z,8.75
2024-02-02T08:18:43.602Z,8.79
2024-02-02T08:21:12.938Z,8.75
2024-02-02T08:23:41.035Z,8.81
2024-02-02T08:26:08.972Z,8.80
2024-02-02T08:28:45.627Z,8.83
2024-02-02T08:31:19.544Z,8.87
2024-02-02T08:33:47.617Z,8.83
2024-02-02T08:36:19.149Z,8.86
2024-02-02T08:38:47.240Z,8.90
2024-02-02T08:41:15.128Z,8.89
2024-02-02T08:43:43.474Z,8.90
2024-02-02T08:46:14.549Z,8.90
2024-02-02T08:48:45.944Z,8.92
2024-02-02T08:51:48.416Z,8.94
2024-02-02T08:54:47.558Z,8.98
2024-02-02T08:57:46.619Z,8.98
2024-02-02T09:00:32.700Z,9.01
2024-02-02T09:03:28.464Z,9.00
2024-02-02T09:05:58.218Z,8.99
2024-02-02T09:08:36.651Z,8.99
2024-02-02T09:11:23.731Z,9.01
2024-02-02T09:14:08.573Z,9.02
2024-02-02T09:16:43.315Z,9.03
2024-02-02T09:19:29.738Z,9.02
2024-02-02T09:22:00.676Z,9.05
2024-02-02T09:24:41.454Z,9.03
2024-02-02T09:27:14.178Z,9.04
2024-02-02T09:29:53.031Z,9.04
2024-02-02T09:32:20.936Z,9.03
2024-02-02T09:34:49.310Z,9.00
2024-02-02T09:37:23.192Z,9.03
2024-02-02T09:39:55.564Z,9.07
2024-02-02T09:42:55.957Z,9.10
2024-02-02T09:45:56.660Z,9.13
2024-02-02T09:48:39.117Z,9.14
2024-02-02T09:51:15.836Z,9.12
2024-02-02T09:54:15.856Z,9.15
2024-02-02T09:56:57.438Z,9.16
2024-02-02T09:59:36.872Z,9.19
2024-02-02T10:02:25.549Z,9.15
2024-02-02T10:05:06.615Z,9.14
2024-02-02T10:07:46.005Z,9.14
2024-02-02T10:10:43.878Z,9.19
2024-02-02T10:13:27.539Z,9.21
2024-02-02T10:16:20.030Z,9.21
2024-02-02T10:19:15.727Z,9.24
2024-02-02T10:21:55.446Z,9.28
2024-02-02T10:24:35.333Z,9.27
2024-02-02T10:27:22.400Z,9.24
2024-02-02T10:30:06.785Z,9.30
2024-02-02T10:33:04.534Z,9.28
2024-02-02T10:35:38.058Z,9.36
2024-02-02T10:38:18.583Z,9.39
2024-02-02T10:40:54.009Z,9.42
2024-02-02T10:43:31.335Z,9.45
2024-02-02T10:46:12.806Z,9.46
2024-02-02T10:49:02.968Z,9.50
2024-02-02T10:51:41.421Z,9.55
2024-02-02T10:54:23.244Z,9.55
2024-02-02T10:57:03.627Z,9.62
2024-02-02T10:59:40.443Z,9.66
2024-02-02T11:02:21.899Z,9.69
2024-02-02T11:05:00.738Z,9.70
2024-02-02T11:07:31.115Z,9.63
2024-02-02T11:10:02.100Z,9.69
2024-02-02T11:12:41.713Z,9.76
2024-02-02T11:15:24.131Z,9.77
2024-02-02T11:18:04.363Z,9.80
2024-02-02T11:20:48.843Z,9.85
2024-02-02T11:23:25.595Z,9.89
2024-02-02T11:25:58.636Z,9.91
2024-02-02T11:28:33.572Z,9.92
2024-02-02T11:31:13.764Z,9.95
2024-02-02T11:33:54.944Z,10.00
2024-02-02T11:36:39.289Z,10.04
2024-02-02T11:39:23.619Z,10.08
2024-02-02T11:41:52.610Z,10.10
2024-02-02T11:44:21.340Z,10.08
2024-02-02T11:46:49.760Z,10.13
2024-02-02T11:49:24.943Z,10.16
2024-02-02T11:51:57.201Z,10.19
2024-02-02T11:54:31.837Z,10.24
2024-02-02T11:57:05.279Z,10.19
2024-02-02T11:59:35.220Z,10.23
2024-02-02T12:02:22.791Z,10.28
2024-02-02T12:04:57.694Z,10.33
2024-02-02T12:07:41.413Z,10.38
2024-02-02T12:10:11.552Z,10.41
2024-02-02T12:12:44.720Z,10.46
2024-02-02T12:15:13.200Z,10.50
2024-02-02T12:17:41.397Z,10.54
2024-02-02T12:20:18.946Z,10.55
2024-02-02T12:22:48.290Z,10.58
2024-02-02T12:25:17.231Z,10.54
2024-02-02T12:27:45.280Z,10.57
2024-02-02T12:30:13.907Z,10.57
2024-02-02T12:32:41.815Z,10.59
2024-02-02T12:35:12.632Z,10.61
2024-02-02T12:37:47.551Z,10.63
2024-02-02T12:40:15.695Z,10.61
2024-02-02T12:42:44.151Z,10.61
2024-02-02T12:45:13.878Z,10.61
2024-02-02T12:47:42.719Z,10.62
2024-02-02T12:50:17.270Z,10.68
2024-02-02T12:52:46.496Z,10.69
2024-02-02T12:55:14.884Z,10.73
2024-02-02T12:57:43.264Z,10.74
2024-02-02T13:00:15.488Z,10.77
2024-02-02T13:02:44.590Z,10.80
2024-02-02T13:05:17.971Z,10.82
2024-02-02T13:07:48.978Z,10.80
2024-02-02T13:10:18.703Z,10.83
2024-02-02T13:12:46.883Z,10.83
2024-02-02T13:15:17.350Z,10.91
2024-02-02T13:17:45.778Z,10.87
2024-02-02T13:20:20.509Z,10.92
2024-02-02T13:22:51.511Z,10.93
2024-02-02T13:25:25.613Z,10.88
2024-02-02T13:27:55.228Z,10.88
2024-02-02T13:30:25.377Z,10.92
2024-02-02T13:32:53.713Z,10.91
2024-02-02T13:35:27.211Z,10.91
2024-02-02T13:37:55.237Z,10.92
2024-02-02T13:40:28.986Z,10.91
2024-02-02T13:42:59.347Z,10.92
2024-02-02T13:45:29.899Z,10.93
2024-02-02T13:48:01.264Z,10.98
2024-02-02T13:50:41.589Z,10.96
2024-02-02T13:53:10.301Z,10.96
2024-02-02T13:55:39.225Z,10.96
2024-02-02T13:58:07.575Z,11.00
2024-02-02T14:00:35.552Z,10.96
2024-02-02T14:03:08.683Z,10.91
2024-02-02T14:05:38.325Z,10.98
2024-02-02T14:08:06.327Z,11.00
2024-02-02T14:10:43.056Z,11.04
2024-02-02T14:13:16.018Z,11.03
2024-02-02T14:15:44.130Z,11.03
2024-02-02T14:18:14.280Z,11.03
2024-02-02T14:20:44.026Z,11.05
2024-02-02T14:23:12.781Z,11.03
2024-02-02T14:25:41.129Z,11.04
2024-02-02T14:28:16.273Z,11.09
2024-02-02T14:30:44.867Z,11.06
2024-02-02T14:33:21.780Z,11.04
2024-02-02T14:35:55.764Z,11.05
2024-02-02T14:38:23.662Z,11.08
2024-02-02T14:40:54.356Z,11.11
2024-02-02T14:43:22.457Z,11.11
2024-02-02T14:45:50.888Z,11.11
2024-02-02T14:48:20.367Z,11.12
2024-02-02T14:50:48.839Z,11.19
2024-02-02T14:53:18.124Z,11.19
2024-02-02T14:55:46.255Z,11.19
2024-02-02T14:58:15.256Z,11.20
2024-02-02T15:00:45.871Z,11.23
2024-02-02T15:03:14.601Z,11.20
2024-02-02T15:05:42.567Z,11.20
2024-02-02T15:08:11.417Z,11.28
2024-02-02T15:10:42.109Z,11.28
2024-02-02T15:13:13.494Z,11.30
2024-02-02T15:15:41.371Z,11.31
2024-02-02T15:18:09.672Z,11.30
2024-02-02T15:20:37.849Z,11.30
2024-02-02T15:23:06.198Z,11.31
2024-02-02T15:25:34.030Z,11.26
2024-02-02T15:28:03.273Z,11.29
2024-02-02T15:30:32.011Z,11.31
2024-02-02T15:33:00.061Z,11.29
2024-02-02T15:35:28.046Z,11.32
2024-02-02T15:37:55.925Z,11.31
2024-02-02T15:40:23.884Z,11.32
2024-02-02T15:42:51.895Z,11.32
2024-02-02T15:45:21.476Z,11.30
2024-02-02T15:47:51.945Z,11.37
2024-02-02T15:50:20.297Z,11.39
2024-02-02T15:52:49.048Z,11.38
2024-02-02T15:55:16.936Z,11.40
2024-02-02T15:57:50.269Z,11.36
2024-02-02T16:00:18.997Z,11.36
2024-02-02T16:02:48.458Z,11.35
2024-02-02T16:05:17.876Z,11.37
2024-02-02T16:07:45.914Z,11.38
2024-02-02T16:10:14.644Z,11.35
2024-02-02T16:12:42.946Z,11.36
2024-02-02T16:15:11.673Z,11.37
2024-02-02T16:17:40.565Z,11.37
2024-02-02T16:20:11.934Z,11.40
2024-02-02T16:22:40.691Z,11.36
2024-02-02T16:25:10.875Z,11.38
2024-02-02T16:27:40.203Z,11.43
2024-02-02T16:30:11.102Z,11.41
2024-02-02T16:32:39.025Z,11.45
2024-02-02T16:35:09.049Z,11.38
2024-02-02T16:37:40.842Z,11.44
2024-02-02T16:40:09.946Z,11.44
2024-02-02T16:42:40.429Z,11.48
2024-02-02T16:45:09.745Z,11.50
2024-02-02T16:47:37.675Z,11.50
2024-02-02T16:50:07.849Z,11.48
2024-02-02T16:52:37.284Z,11.49
2024-02-02T16:55:07.558Z,11.48
2024-02-02T16:57:35.622Z,11.46
2024-02-02T17:00:06.143Z,11.48
2024-02-02T17:02:34.853Z,11.50
2024-02-02T17:05:02.834Z,11.45
2024-02-02T17:07:30.957Z,11.44
2024-02-02T17:09:59.173Z,11.48
2024-02-02T17:12:28.500Z,11.48
2024-02-02T17:14:57.338Z,11.51
2024-02-02T17:17:25.234Z,11.50
2024-02-02T17:19:53.302Z,11.54
2024-02-02T17:22:21.193Z,11.49
2024-02-02T17:24:49.131Z,11.49
2024-02-02T17:27:17.081Z,11.49
2024-02-02T17:29:46.359Z,11.52
2024-02-02T17:32:17.445Z,11.53
2024-02-02T17:34:48.516Z,11.52
2024-02-02T17:37:17.045Z,11.53
2024-02-02T17:39:46.029Z,11.53
2024-02-02T17:42:13.973Z,11.47
2024-02-02T17:44:43.277Z,11.47
2024-02-02T17:47:12.473Z,11.52
2024-02-02T17:49:45.626Z,11.55
2024-02-02T17:52:17.531Z,11.56
2024-02-02T17:54:45.491Z,11.58
2024-02-02T17:57:13.480Z,11.58
2024-02-02T17:59:41.874Z,11.57
2024-02-02T18:02:10.912Z,11.59
2024-02-02T18:04:40.275Z,11.62
2024-02-02T18:07:10.576Z,11.58
2024-02-02T18:09:39.743Z,11.59
2024-02-02T18:12:12.050Z,11.63
2024-02-02T18:14:40.044Z,11.67
2024-02-02T18:17:07.941Z,11.68
2024-02-02T18:19:35.955Z,11.69
2024-02-02T18:22:05.619Z,11.71
2024-02-02T18:24:33.367Z,11.72
2024-02-02T18:27:01.882Z,11.76
2024-02-02T18:29:29.806Z,11.77
2024-02-02T18:31:57.644Z,11.73
2024-02-02T18:34:25.517Z,11.72
2024-02-02T18:36:53.502Z,11.73
2024-02-02T18:39:22.830Z,11.74
2024-02-02T18:41:50.876Z,11.74
2024-02-02T18:44:18.772Z,11.71
2024-02-02T18:46:46.648Z,11.78
2024-02-02T18:49:14.891Z,11.78
2024-02-02T18:51:42.862Z,11.84
2024-02-02T18:54:13.616Z,11.87
2024-02-02T18:56:44.014Z,11.88
2024-02-02T18:59:11.992Z,11.92
2024-02-02T19:01:39.908Z,11.95
2024-02-02T19:04:09.235Z,11.96
2024-02-02T19:06:39.380Z,11.96
2024-02-02T19:09:07.703Z,11.96
2024-02-02T19:11:35.692Z,12.01
2024-02-02T19:14:06.499Z,12.05
2024-02-02T19:16:34.479Z,12.06
2024-02-02T19:19:02.659Z,12.03
2024-02-02T19:21:32.608Z,12.07
2024-02-02T19:24:02.825Z,12.06
2024-02-02T19:26:30.750Z,12.12
2024-02-02T19:28:58.632Z,12.09
2024-02-02T19:31:29.016Z,12.12
2024-02-02T19:33:57.537Z,12.14
2024-02-02T19:36:27.443Z,12.12
2024-02-02T19:38:56.290Z,12.16
2024-02-02T19:41:25.403Z,12.18
2024-02-02T19:43:54.368Z,12.15
2024-02-02T19:46:23.717Z,12.16
2024-02-02T19:48:54.377Z,12.21
2024-02-02T19:51:24.075Z,12.25
2024-02-02T19:53:51.932Z,12.28
2024-02-02T19:56:20.354Z,12.22
2024-02-02T19:58:49.306Z,12.29
2024-02-02T20:01:19.580Z,12.29
2024-02-02T20:03:50.147Z,12.30
2024-02-02T20:06:21.562Z,12.33
2024-02-02T20:08:51.536Z,12.32
2024-02-02T20:11:21.110Z,12.36
2024-02-02T20:13:49.788Z,12.36
2024-02-02T20:16:19.367Z,12.42
2024-02-02T20:18:47.825Z,12.44
2024-02-02T20:21:16.606Z,12.44
2024-02-02T20:23:46.875Z,12.42
2024-02-02T20:26:18.329Z,12.43
2024-02-02T20:28:47.303Z,12.42
2024-02-02T20:31:15.224Z,12.49
2024-02-02T20:33:43.213Z,12.49
2024-02-02T20:36:12.277Z,12.50
2024-02-02T20:38:42.898Z,12.44
2024-02-02T20:41:14.926Z,12.53
2024-02-02T20:43:43.029Z,12.55
2024-02-02T20:46:13.174Z,12.57
2024-02-02T20:48:41.511Z,12.55
2024-02-02T20:51:10.199Z,12.61
2024-02-02T20:53:38.749Z,12.57
2024-02-02T20:56:07.505Z,12.60
2024-02-02T20:58:36.764Z,12.58
2024-02-02T21:01:05.354Z,12.61
2024-02-02T21:03:33.651Z,12.62
2024-02-02T21:06:02.087Z,12.60
2024-02-02T21:08:30.181Z,12.65
2024-02-02T21:10:58.067Z,12.65
2024-02-02T21:13:25.889Z,12.67
2024-02-02T21:15:55.212Z,12.67
2024-02-02T21:18:24.931Z,12.63
2024-02-02T21:20:54.178Z,12.63
2024-02-02T21:23:22.278Z,12.66
2024-02-02T21:25:50.644Z,12.67
2024-02-02T21:28:20.532Z,12.68
2024-02-02T21:30:49.749Z,12.62
2024-02-02T21:33:27.832Z,12.60
2024-02-02T21:35:56.070Z,12.60
2024-02-02T21:38:23.956Z,12.63
2024-02-02T21:40:52.187Z,12.63
2024-02-02T21:43:20.070Z,12.63
2024-02-02T21:45:49.527Z,12.66
2024-02-02T21:48:17.662Z,12.68
2024-02-02T21:50:47.003Z,12.67
2024-02-02T21:53:15.172Z,12.66
2024-02-02T21:55:43.449Z,12.63
2024-02-02T21:58:11.312Z,12.66
2024-02-02T22:00:39.419Z,12.65
2024-02-02T22:03:07.619Z,12.66
2024-02-02T22:05:35.536Z,12.68
2024-02-02T22:08:05.078Z,12.70
2024-02-02T22:10:34.271Z,12.67
2024-02-02T22:13:02.151Z,12.65
2024-02-02T22:15:30.662Z,12.67
2024-02-02T22:17:58.810Z,12.62
2024-02-02T22:20:26.755Z,12.65
2024-02-02T22:22:55.368Z,12.65
2024-02-02T22:25:25.069Z,12.61
2024-02-02T22:27:53.128Z,12.62
2024-02-02T22:30:21.056Z,12.64
2024-02-02T22:32:49.452Z,12.65
2024-02-02T22:35:17.515Z,12.69
2024-02-02T22:37:45.408Z,12.68
2024-02-02T22:40:14.364Z,12.70
2024-02-02T22:42:43.632Z,12.66
2024-02-02T22:45:12.884Z,12.65
2024-02-02T22:47:40.926Z,12.64
2024-02-02T22:50:11.466Z,12.63
2024-02-02T22:52:39.767Z,12.64
2024-02-02T22:55:08.270Z,12.65
2024-02-02T22:57:36.115Z,12.55
2024-02-02T23:00:11.034Z,12.59
2024-02-02T23:02:38.954Z,12.60
2024-02-02T23:05:07.005Z,12.59
2024-02-02T23:07:35.035Z,12.56
2024-02-02T23:10:02.899Z,12.55
2024-02-02T23:12:30.763Z,12.57
2024-02-02T23:14:58.841Z,12.57
2024-02-02T23:17:28.049Z,12.57
2024-02-02T23:19:56.075Z,12.57
2024-02-02T23:22:24.774Z,12.59
2024-02-02T23:24:52.677Z,12.57
2024-02-02T23:27:20.649Z,12.56
2024-02-02T23:29:48.548Z,12.56
2024-02-02T23:32:16.406Z,12.58
2024-02-02T23:34:45.694Z,12.62
2024-02-02T23:37:13.803Z,12.60
2024-02-02T23:39:41.905Z,12.60
2024-02-02T23:42:10.602Z,12.63
2024-02-02T23:44:38.641Z,12.61
2024-02-02T23:47:07.003Z,12.58
2024-02-02T23:49:35.021Z,12.65
2024-02-02T23:52:04.744Z,12.65
2024-02-02T23:54:32.405Z,12.69
2024-02-02T23:57:00.438Z,12.73
2024-02-02T23:59:28.620Z,12.75
